sensor_id;sensor_type;location;lat;lon;timestamp;P1;durP1;ratioP1;P2;durP2;ratioP2
24826;SDS011;12910;57.690;11.974;2023-03-01T00:03:29;13.83;;;3.63;;
24826;SDS011;12910;57.690;11.974;2023-03-01T00:05:54;7.80;;;2.57;;
24826;SDS011;12910;57.690;11.974;2023-03-01T00:08:20;4.97;;;2.73;;
24826;SDS011;12910;57.690;11.974;2023-03-01T00:10:45;1.80;;;1.60;;
24826;SDS011;12910;57.690;11.974;2023-03-01T00:13:10;2.40;;;1.90;;
24826;SDS011;12910;57.690;11.974;2023-03-01T00:15:39;3.93;;;2.07;;
24826;SDS011;12910;57.690;11.974;2023-03-01T00:18:06;2.70;;;2.00;;
24826;SDS011;12910;57.690;11.974;2023-03-01T00:20:32;9.70;;;2.43;;
24826;SDS011;12910;57.690;11.974;2023-03-01T00:22:57;9.53;;;2.97;;
24826;SDS011;12910;57.690;11.974;2023-03-01T00:25:22;6.70;;;2.50;;
24826;SDS011;12910;57.690;11.974;2023-03-01T00:27:48;3.07;;;2.53;;
24826;SDS011;12910;57.690;11.974;2023-03-01T00:30:14;6.87;;;2.70;;
24826;SDS011;12910;57.690;11.974;2023-03-01T00:32:40;3.70;;;3.40;;
24826;SDS011;12910;57.690;11.974;2023-03-01T00:35:05;3.23;;;2.47;;
24826;SDS011;12910;57.690;11.974;2023-03-01T00:37:31;6.43;;;3.43;;
24826;SDS011;12910;57.690;11.974;2023-03-01T00:39:56;7.53;;;3.53;;
24826;SDS011;12910;57.690;11.974;2023-03-01T00:42:21;5.87;;;2.77;;
24826;SDS011;12910;57.690;11.974;2023-03-01T00:44:47;5.30;;;3.07;;
24826;SDS011;12910;57.690;11.974;2023-03-01T00:47:12;4.20;;;3.20;;
24826;SDS011;12910;57.690;11.974;2023-03-01T00:49:38;2.93;;;2.40;;
24826;SDS011;12910;57.690;11.974;2023-03-01T00:52:04;3.10;;;2.80;;
24826;SDS011;12910;57.690;11.974;2023-03-01T00:54:29;4.20;;;2.73;;
24826;SDS011;12910;57.690;11.974;2023-03-01T00:56:55;3.20;;;3.00;;
24826;SDS011;12910;57.690;11.974;2023-03-01T00:59:20;4.40;;;2.77;;
24826;SDS011;12910;57.690;11.974;2023-03-01T01:01:46;3.20;;;2.90;;
24826;SDS011;12910;57.690;11.974;2023-03-01T01:04:12;7.80;;;2.80;;
24826;SDS011;12910;57.690;11.974;2023-03-01T01:06:42;7.23;;;3.10;;
24826;SDS011;12910;57.690;11.974;2023-03-01T01:09:10;7.90;;;3.00;;
24826;SDS011;12910;57.690;11.974;2023-03-01T01:11:42;3.47;;;3.00;;
24826;SDS011;12910;57.690;11.974;2023-03-01T01:14:15;4.90;;;4.03;;
24826;SDS011;12910;57.690;11.974;2023-03-01T01:16:41;4.07;;;2.80;;
24826;SDS011;12910;57.690;11.974;2023-03-01T01:19:07;3.40;;;3.10;;
24826;SDS011;12910;57.690;11.974;2023-03-01T01:21:32;3.07;;;2.87;;
24826;SDS011;12910;57.690;11.974;2023-03-01T01:23:58;3.67;;;2.67;;
24826;SDS011;12910;57.690;11.974;2023-03-01T01:26:27;3.93;;;2.73;;
24826;SDS011;12910;57.690;11.974;2023-03-01T01:28:54;7.13;;;2.77;;
24826;SDS011;12910;57.690;11.974;2023-03-01T01:31:20;5.80;;;2.50;;
24826;SDS011;12910;57.690;11.974;2023-03-01T01:33:51;3.10;;;2.00;;
24826;SDS011;12910;57.690;11.974;2023-03-01T01:36:17;2.60;;;2.17;;
24826;SDS011;12910;57.690;11.974;2023-03-01T01:38:42;1.30;;;1.20;;
24826;SDS011;12910;57.690;11.974;2023-03-01T01:41:08;2.23;;;2.03;;
24826;SDS011;12910;57.690;11.974;2023-03-01T01:43:43;7.10;;;2.37;;
24826;SDS011;12910;57.690;11.974;2023-03-01T01:46:16;3.87;;;2.30;;
24826;SDS011;12910;57.690;11.974;2023-03-01T01:48:57;1.90;;;1.60;;
24826;SDS011;12910;57.690;11.974;2023-03-01T01:51:28;4.27;;;2.20;;
24826;SDS011;12910;57.690;11.974;2023-03-01T01:54:03;5.50;;;2.53;;
24826;SDS011;12910;57.690;11.974;2023-03-01T01:56:35;8.27;;;2.63;;
24826;SDS011;12910;57.690;11.974;2023-03-01T01:59:04;4.93;;;1.87;;
24826;SDS011;12910;57.690;11.974;2023-03-01T02:01:29;8.63;;;2.43;;
24826;SDS011;12910;57.690;11.974;2023-03-01T02:03:55;2.27;;;2.17;;
24826;SDS011;12910;57.690;11.974;2023-03-01T02:08:57;2.73;;;2.33;;
24826;SDS011;12910;57.690;11.974;2023-03-01T02:11:27;8.03;;;2.60;;
24826;SDS011;12910;57.690;11.974;2023-03-01T02:13:57;2.70;;;2.50;;
24826;SDS011;12910;57.690;11.974;2023-03-01T02:16:23;2.27;;;2.07;;
24826;SDS011;12910;57.690;11.974;2023-03-01T02:18:51;2.37;;;2.17;;
24826;SDS011;12910;57.690;11.974;2023-03-01T02:23:53;2.83;;;2.50;;
24826;SDS011;12910;57.690;11.974;2023-03-01T02:26:22;6.07;;;2.50;;
24826;SDS011;12910;57.690;11.974;2023-03-01T02:28:54;3.10;;;2.90;;
24826;SDS011;12910;57.690;11.974;2023-03-01T02:31:20;3.13;;;2.43;;
24826;SDS011;12910;57.690;11.974;2023-03-01T02:34:06;7.67;;;2.90;;
24826;SDS011;12910;57.690;11.974;2023-03-01T02:36:37;2.53;;;2.30;;
24826;SDS011;12910;57.690;11.974;2023-03-01T02:39:07;3.17;;;2.90;;
24826;SDS011;12910;57.690;11.974;2023-03-01T02:41:39;2.70;;;2.50;;
24826;SDS011;12910;57.690;11.974;2023-03-01T02:44:07;7.30;;;3.20;;
24826;SDS011;12910;57.690;11.974;2023-03-01T02:46:33;3.00;;;2.63;;
24826;SDS011;12910;57.690;11.974;2023-03-01T02:48:59;2.73;;;2.43;;
24826;SDS011;12910;57.690;11.974;2023-03-01T02:54:13;2.87;;;2.67;;
24826;SDS011;12910;57.690;11.974;2023-03-01T02:56:53;2.60;;;2.40;;
24826;SDS011;12910;57.690;11.974;2023-03-01T02:59:20;2.77;;;2.57;;
24826;SDS011;12910;57.690;11.974;2023-03-01T03:01:49;8.73;;;3.40;;
24826;SDS011;12910;57.690;11.974;2023-03-01T03:04:15;10.00;;;2.73;;
24826;SDS011;12910;57.690;11.974;2023-03-01T03:06:46;3.33;;;3.13;;
24826;SDS011;12910;57.690;11.974;2023-03-01T03:09:15;3.57;;;3.27;;
24826;SDS011;12910;57.690;11.974;2023-03-01T03:11:41;7.87;;;2.77;;
24826;SDS011;12910;57.690;11.974;2023-03-01T03:14:08;4.83;;;3.00;;
24826;SDS011;12910;57.690;11.974;2023-03-01T03:16:50;2.73;;;2.53;;
24826;SDS011;12910;57.690;11.974;2023-03-01T03:19:15;4.80;;;2.80;;
24826;SDS011;12910;57.690;11.974;2023-03-01T03:21:42;3.40;;;3.10;;
24826;SDS011;12910;57.690;11.974;2023-03-01T03:24:07;2.63;;;2.43;;
24826;SDS011;12910;57.690;11.974;2023-03-01T03:26:33;8.27;;;3.07;;
24826;SDS011;12910;57.690;11.974;2023-03-01T03:28:58;5.40;;;2.77;;
24826;SDS011;12910;57.690;11.974;2023-03-01T03:31:23;3.00;;;2.70;;
24826;SDS011;12910;57.690;11.974;2023-03-01T03:33:49;3.63;;;2.10;;
24826;SDS011;12910;57.690;11.974;2023-03-01T03:36:15;2.33;;;2.10;;
24826;SDS011;12910;57.690;11.974;2023-03-01T03:38:46;4.60;;;2.43;;
24826;SDS011;12910;57.690;11.974;2023-03-01T03:41:12;2.43;;;2.23;;
24826;SDS011;12910;57.690;11.974;2023-03-01T03:43:38;2.23;;;2.03;;
24826;SDS011;12910;57.690;11.974;2023-03-01T03:46:05;4.10;;;2.83;;
24826;SDS011;12910;57.690;11.974;2023-03-01T03:48:35;2.07;;;1.97;;
24826;SDS011;12910;57.690;11.974;2023-03-01T03:51:02;7.70;;;2.30;;
24826;SDS011;12910;57.690;11.974;2023-03-01T03:53:30;2.90;;;2.70;;
24826;SDS011;12910;57.690;11.974;2023-03-01T03:55:56;2.50;;;2.30;;
24826;SDS011;12910;57.690;11.974;2023-03-01T03:58:22;3.13;;;2.43;;
24826;SDS011;12910;57.690;11.974;2023-03-01T04:00:50;2.40;;;1.90;;
24826;SDS011;12910;57.690;11.974;2023-03-01T04:03:21;2.07;;;1.97;;
24826;SDS011;12910;57.690;11.974;2023-03-01T04:05:48;2.87;;;2.30;;
24826;SDS011;12910;57.690;11.974;2023-03-01T04:08:19;2.60;;;1.83;;
24826;SDS011;12910;57.690;11.974;2023-03-01T04:10:46;2.23;;;2.03;;
24826;SDS011;12910;57.690;11.974;2023-03-01T04:13:15;2.80;;;2.00;;
24826;SDS011;12910;57.690;11.974;2023-03-01T04:15:42;2.63;;;2.43;;
24826;SDS011;12910;57.690;11.974;2023-03-01T04:18:14;2.27;;;2.17;;
24826;SDS011;12910;57.690;11.974;2023-03-01T04:20:41;2.17;;;1.97;;
24826;SDS011;12910;57.690;11.974;2023-03-01T04:23:08;2.57;;;2.10;;
24826;SDS011;12910;57.690;11.974;2023-03-01T04:25:59;2.27;;;2.07;;
24826;SDS011;12910;57.690;11.974;2023-03-01T04:28:28;2.70;;;1.70;;
24826;SDS011;12910;57.690;11.974;2023-03-01T04:30:56;2.00;;;1.80;;
24826;SDS011;12910;57.690;11.974;2023-03-01T04:33:23;2.70;;;1.60;;
24826;SDS011;12910;57.690;11.974;2023-03-01T04:35:49;2.57;;;2.07;;
24826;SDS011;12910;57.690;11.974;2023-03-01T04:38:16;4.07;;;2.43;;
24826;SDS011;12910;57.690;11.974;2023-03-01T04:40:42;3.17;;;2.17;;
24826;SDS011;12910;57.690;11.974;2023-03-01T04:43:08;2.23;;;1.97;;
24826;SDS011;12910;57.690;11.974;2023-03-01T04:45:34;2.20;;;2.00;;
24826;SDS011;12910;57.690;11.974;2023-03-01T04:47:59;2.60;;;2.40;;
24826;SDS011;12910;57.690;11.974;2023-03-01T04:50:25;2.07;;;1.63;;
24826;SDS011;12910;57.690;11.974;2023-03-01T04:52:50;2.27;;;2.07;;
24826;SDS011;12910;57.690;11.974;2023-03-01T04:55:16;5.97;;;2.20;;
24826;SDS011;12910;57.690;11.974;2023-03-01T04:57:42;1.60;;;1.50;;
24826;SDS011;12910;57.690;11.974;2023-03-01T05:00:09;1.50;;;1.40;;
24826;SDS011;12910;57.690;11.974;2023-03-01T05:02:56;3.13;;;2.03;;
24826;SDS011;12910;57.690;11.974;2023-03-01T05:05:26;5.60;;;2.30;;
24826;SDS011;12910;57.690;11.974;2023-03-01T05:07:53;4.70;;;1.67;;
24826;SDS011;12910;57.690;11.974;2023-03-01T05:10:21;2.83;;;1.87;;
24826;SDS011;12910;57.690;11.974;2023-03-01T05:12:47;2.23;;;1.53;;
24826;SDS011;12910;57.690;11.974;2023-03-01T05:15:12;1.60;;;1.50;;
24826;SDS011;12910;57.690;11.974;2023-03-01T05:17:37;2.53;;;2.20;;
24826;SDS011;12910;57.690;11.974;2023-03-01T05:20:03;3.17;;;2.07;;
24826;SDS011;12910;57.690;11.974;2023-03-01T05:22:33;2.93;;;2.27;;
24826;SDS011;12910;57.690;11.974;2023-03-01T05:24:58;2.03;;;1.90;;
24826;SDS011;12910;57.690;11.974;2023-03-01T05:27:24;4.73;;;2.60;;
24826;SDS011;12910;57.690;11.974;2023-03-01T05:29:49;3.63;;;1.93;;
24826;SDS011;12910;57.690;11.974;2023-03-01T05:32:14;2.33;;;2.10;;
24826;SDS011;12910;57.690;11.974;2023-03-01T05:34:41;1.70;;;1.60;;
24826;SDS011;12910;57.690;11.974;2023-03-01T05:37:07;13.70;;;2.07;;
24826;SDS011;12910;57.690;11.974;2023-03-01T05:39:32;1.80;;;1.50;;
24826;SDS011;12910;57.690;11.974;2023-03-01T05:41:59;2.67;;;1.70;;
24826;SDS011;12910;57.690;11.974;2023-03-01T05:44:26;1.00;;;1.00;;
24826;SDS011;12910;57.690;11.974;2023-03-01T05:46:52;3.40;;;1.00;;
24826;SDS011;12910;57.690;11.974;2023-03-01T05:49:19;10.73;;;2.57;;
24826;SDS011;12910;57.690;11.974;2023-03-01T05:51:47;8.37;;;1.63;;
24826;SDS011;12910;57.690;11.974;2023-03-01T05:54:14;1.23;;;1.10;;
24826;SDS011;12910;57.690;11.974;2023-03-01T05:56:40;1.33;;;1.00;;
24826;SDS011;12910;57.690;11.974;2023-03-01T05:59:05;0.97;;;0.97;;
24826;SDS011;12910;57.690;11.974;2023-03-01T06:01:34;1.60;;;1.20;;
24826;SDS011;12910;57.690;11.974;2023-03-01T06:04:00;1.97;;;1.20;;
24826;SDS011;12910;57.690;11.974;2023-03-01T06:06:26;2.53;;;1.50;;
24826;SDS011;12910;57.690;11.974;2023-03-01T06:08:52;2.27;;;1.83;;
24826;SDS011;12910;57.690;11.974;2023-03-01T06:11:18;2.60;;;2.40;;
24826;SDS011;12910;57.690;11.974;2023-03-01T06:13:44;3.63;;;2.53;;
24826;SDS011;12910;57.690;11.974;2023-03-01T06:16:11;2.90;;;2.70;;
24826;SDS011;12910;57.690;11.974;2023-03-01T06:18:37;2.93;;;1.60;;
24826;SDS011;12910;57.690;11.974;2023-03-01T06:21:03;2.40;;;1.80;;
24826;SDS011;12910;57.690;11.974;2023-03-01T06:23:30;1.73;;;1.63;;
24826;SDS011;12910;57.690;11.974;2023-03-01T06:25:55;2.30;;;1.70;;
24826;SDS011;12910;57.690;11.974;2023-03-01T06:28:21;1.83;;;1.60;;
24826;SDS011;12910;57.690;11.974;2023-03-01T06:30:46;5.10;;;1.37;;
24826;SDS011;12910;57.690;11.974;2023-03-01T06:33:12;6.33;;;2.00;;
24826;SDS011;12910;57.690;11.974;2023-03-01T06:35:38;3.10;;;1.63;;
24826;SDS011;12910;57.690;11.974;2023-03-01T06:38:03;1.43;;;1.30;;
24826;SDS011;12910;57.690;11.974;2023-03-01T06:40:29;2.53;;;1.40;;
24826;SDS011;12910;57.690;11.974;2023-03-01T06:43:00;3.67;;;1.20;;
24826;SDS011;12910;57.690;11.974;2023-03-01T06:45:26;5.70;;;1.20;;
24826;SDS011;12910;57.690;11.974;2023-03-01T06:47:51;1.20;;;1.10;;
24826;SDS011;12910;57.690;11.974;2023-03-01T06:50:17;1.87;;;1.10;;
24826;SDS011;12910;57.690;11.974;2023-03-01T06:52:44;1.33;;;1.07;;
24826;SDS011;12910;57.690;11.974;2023-03-01T06:55:10;4.00;;;1.20;;
24826;SDS011;12910;57.690;11.974;2023-03-01T06:57:36;6.23;;;1.13;;
24826;SDS011;12910;57.690;11.974;2023-03-01T07:00:02;1.53;;;1.43;;
24826;SDS011;12910;57.690;11.974;2023-03-01T07:02:28;4.73;;;1.37;;
24826;SDS011;12910;57.690;11.974;2023-03-01T07:04:53;1.50;;;1.40;;
24826;SDS011;12910;57.690;11.974;2023-03-01T07:07:19;2.03;;;1.53;;
24826;SDS011;12910;57.690;11.974;2023-03-01T07:09:45;1.67;;;1.10;;
24826;SDS011;12910;57.690;11.974;2023-03-01T07:12:10;2.90;;;1.30;;
24826;SDS011;12910;57.690;11.974;2023-03-01T07:14:36;1.50;;;1.30;;
24826;SDS011;12910;57.690;11.974;2023-03-01T07:17:01;1.43;;;1.30;;
24826;SDS011;12910;57.690;11.974;2023-03-01T07:19:27;14.23;;;1.43;;
24826;SDS011;12910;57.690;11.974;2023-03-01T07:21:52;9.93;;;1.40;;
24826;SDS011;12910;57.690;11.974;2023-03-01T07:24:18;12.43;;;1.60;;
24826;SDS011;12910;57.690;11.974;2023-03-01T07:26:43;3.63;;;1.30;;
24826;SDS011;12910;57.690;11.974;2023-03-01T07:29:09;3.73;;;1.93;;
24826;SDS011;12910;57.690;11.974;2023-03-01T07:31:35;1.57;;;1.47;;
24826;SDS011;12910;57.690;11.974;2023-03-01T07:34:01;2.33;;;1.13;;
24826;SDS011;12910;57.690;11.974;2023-03-01T07:36:27;1.40;;;1.10;;
24826;SDS011;12910;57.690;11.974;2023-03-01T07:38:52;3.37;;;1.40;;
24826;SDS011;12910;57.690;11.974;2023-03-01T07:41:18;2.37;;;0.80;;
24826;SDS011;12910;57.690;11.974;2023-03-01T07:43:43;4.77;;;1.13;;
24826;SDS011;12910;57.690;11.974;2023-03-01T07:46:09;2.00;;;0.73;;
24826;SDS011;12910;57.690;11.974;2023-03-01T07:48:34;21.83;;;1.73;;
24826;SDS011;12910;57.690;11.974;2023-03-01T07:51:00;2.57;;;1.40;;
24826;SDS011;12910;57.690;11.974;2023-03-01T07:53:27;3.47;;;1.10;;
24826;SDS011;12910;57.690;11.974;2023-03-01T07:56:14;1.57;;;1.13;;
24826;SDS011;12910;57.690;11.974;2023-03-01T07:58:42;1.20;;;0.90;;
24826;SDS011;12910;57.690;11.974;2023-03-01T08:01:10;1.23;;;1.13;;
24826;SDS011;12910;57.690;11.974;2023-03-01T08:03:37;1.03;;;0.70;;
24826;SDS011;12910;57.690;11.974;2023-03-01T08:06:04;2.63;;;1.00;;
24826;SDS011;12910;57.690;11.974;2023-03-01T08:08:31;5.60;;;0.80;;
24826;SDS011;12910;57.690;11.974;2023-03-01T08:10:57;2.43;;;1.10;;
24826;SDS011;12910;57.690;11.974;2023-03-01T08:13:24;0.80;;;0.80;;
24826;SDS011;12910;57.690;11.974;2023-03-01T08:15:49;4.70;;;1.20;;
24826;SDS011;12910;57.690;11.974;2023-03-01T08:18:15;1.13;;;1.00;;
24826;SDS011;12910;57.690;11.974;2023-03-01T08:20:42;2.83;;;1.03;;
24826;SDS011;12910;57.690;11.974;2023-03-01T08:23:07;1.70;;;0.70;;
24826;SDS011;12910;57.690;11.974;2023-03-01T08:25:33;1.70;;;1.00;;
24826;SDS011;12910;57.690;11.974;2023-03-01T08:27:58;0.90;;;0.70;;
24826;SDS011;12910;57.690;11.974;2023-03-01T08:30:23;5.53;;;0.70;;
24826;SDS011;12910;57.690;11.974;2023-03-01T08:32:49;1.83;;;0.80;;
24826;SDS011;12910;57.690;11.974;2023-03-01T08:35:15;0.77;;;0.50;;
24826;SDS011;12910;57.690;11.974;2023-03-01T08:37:41;0.80;;;0.70;;
24826;SDS011;12910;57.690;11.974;2023-03-01T08:40:07;1.40;;;0.50;;
24826;SDS011;12910;57.690;11.974;2023-03-01T08:42:34;0.57;;;0.50;;
24826;SDS011;12910;57.690;11.974;2023-03-01T08:45:01;1.37;;;1.07;;
24826;SDS011;12910;57.690;11.974;2023-03-01T08:47:27;2.70;;;0.50;;
24826;SDS011;12910;57.690;11.974;2023-03-01T08:49:52;0.50;;;0.50;;
24826;SDS011;12910;57.690;11.974;2023-03-01T08:52:18;0.77;;;0.50;;
24826;SDS011;12910;57.690;11.974;2023-03-01T08:54:45;1.73;;;0.60;;
24826;SDS011;12910;57.690;11.974;2023-03-01T08:57:12;1.10;;;0.60;;
24826;SDS011;12910;57.690;11.974;2023-03-01T08:59:38;0.67;;;0.40;;
24826;SDS011;12910;57.690;11.974;2023-03-01T09:02:04;1.33;;;0.60;;
24826;SDS011;12910;57.690;11.974;2023-03-01T09:04:30;0.60;;;0.50;;
24826;SDS011;12910;57.690;11.974;2023-03-01T09:06:55;0.50;;;0.50;;
24826;SDS011;12910;57.690;11.974;2023-03-01T09:09:21;0.40;;;0.30;;
24826;SDS011;12910;57.690;11.974;2023-03-01T09:11:46;1.83;;;0.40;;
24826;SDS011;12910;57.690;11.974;2023-03-01T09:14:12;2.70;;;0.50;;
24826;SDS011;12910;57.690;11.974;2023-03-01T09:16:38;2.20;;;0.50;;
24826;SDS011;12910;57.690;11.974;2023-03-01T09:19:04;0.40;;;0.40;;
24826;SDS011;12910;57.690;11.974;2023-03-01T09:21:30;1.47;;;0.60;;
24826;SDS011;12910;57.690;11.974;2023-03-01T09:23:56;0.50;;;0.37;;
24826;SDS011;12910;57.690;11.974;2023-03-01T09:26:38;1.20;;;0.40;;
24826;SDS011;12910;57.690;11.974;2023-03-01T09:29:12;0.87;;;0.63;;
24826;SDS011;12910;57.690;11.974;2023-03-01T09:31:41;1.17;;;0.50;;
24826;SDS011;12910;57.690;11.974;2023-03-01T09:34:08;0.33;;;0.30;;
24826;SDS011;12910;57.690;11.974;2023-03-01T09:36:34;0.57;;;0.40;;
24826;SDS011;12910;57.690;11.974;2023-03-01T09:39:00;0.63;;;0.40;;
24826;SDS011;12910;57.690;11.974;2023-03-01T09:44:27;2.13;;;0.43;;
24826;SDS011;12910;57.690;11.974;2023-03-01T09:46:55;0.80;;;0.37;;
24826;SDS011;12910;57.690;11.974;2023-03-01T09:49:23;0.30;;;0.30;;
24826;SDS011;12910;57.690;11.974;2023-03-01T09:51:55;6.83;;;0.70;;
24826;SDS011;12910;57.690;11.974;2023-03-01T09:54:24;0.33;;;0.33;;
24826;SDS011;12910;57.690;11.974;2023-03-01T09:56:59;0.40;;;0.40;;
24826;SDS011;12910;57.690;11.974;2023-03-01T09:59:30;0.47;;;0.40;;
24826;SDS011;12910;57.690;11.974;2023-03-01T10:04:52;0.87;;;0.40;;
24826;SDS011;12910;57.690;11.974;2023-03-01T10:07:27;1.63;;;0.23;;
24826;SDS011;12910;57.690;11.974;2023-03-01T10:09:53;0.50;;;0.30;;
24826;SDS011;12910;57.690;11.974;2023-03-01T10:12:20;4.00;;;0.40;;
24826;SDS011;12910;57.690;11.974;2023-03-01T10:14:57;0.90;;;0.67;;
24826;SDS011;12910;57.690;11.974;2023-03-01T10:20:26;0.40;;;0.40;;
24826;SDS011;12910;57.690;11.974;2023-03-01T10:22:58;1.47;;;0.40;;
24826;SDS011;12910;57.690;11.974;2023-03-01T10:25:44;2.90;;;0.43;;
24826;SDS011;12910;57.690;11.974;2023-03-01T10:28:31;0.93;;;0.37;;
24826;SDS011;12910;57.690;11.974;2023-03-01T10:30:59;0.90;;;0.40;;
24826;SDS011;12910;57.690;11.974;2023-03-01T10:33:32;0.57;;;0.50;;
24826;SDS011;12910;57.690;11.974;2023-03-01T10:36:02;7.13;;;0.40;;
24826;SDS011;12910;57.690;11.974;2023-03-01T10:38:30;1.60;;;0.37;;
24826;SDS011;12910;57.690;11.974;2023-03-01T10:41:11;9.47;;;0.40;;
24826;SDS011;12910;57.690;11.974;2023-03-01T10:43:47;0.73;;;0.40;;
24826;SDS011;12910;57.690;11.974;2023-03-01T10:51:39;2.27;;;0.60;;
24826;SDS011;12910;57.690;11.974;2023-03-01T10:54:29;0.40;;;0.30;;
24826;SDS011;12910;57.690;11.974;2023-03-01T10:56:53;2.73;;;0.50;;
24826;SDS011;12910;57.690;11.974;2023-03-01T10:59:26;1.07;;;0.40;;
24826;SDS011;12910;57.690;11.974;2023-03-01T11:10:34;2.50;;;0.33;;
24826;SDS011;12910;57.690;11.974;2023-03-01T11:13:14;0.70;;;0.40;;
24826;SDS011;12910;57.690;11.974;2023-03-01T11:15:42;5.60;;;0.63;;
24826;SDS011;12910;57.690;11.974;2023-03-01T11:18:21;3.23;;;0.40;;
24826;SDS011;12910;57.690;11.974;2023-03-01T11:20:48;2.03;;;0.30;;
24826;SDS011;12910;57.690;11.974;2023-03-01T11:23:17;3.10;;;0.30;;
24826;SDS011;12910;57.690;11.974;2023-03-01T11:26:00;4.33;;;0.30;;
24826;SDS011;12910;57.690;11.974;2023-03-01T11:28:30;10.90;;;0.87;;
24826;SDS011;12910;57.690;11.974;2023-03-01T11:30:57;10.70;;;0.47;;
24826;SDS011;12910;57.690;11.974;2023-03-01T11:38:40;1.23;;;0.50;;
24826;SDS011;12910;57.690;11.974;2023-03-01T12:02:55;1.10;;;0.50;;
24826;SDS011;12910;57.690;11.974;2023-03-01T12:11:21;5.90;;;0.57;;
24826;SDS011;12910;57.690;11.974;2023-03-01T12:14:04;1.67;;;0.90;;
24826;SDS011;12910;57.690;11.974;2023-03-01T12:17:07;1.37;;;0.30;;
24826;SDS011;12910;57.690;11.974;2023-03-01T12:25:20;1.10;;;0.30;;
24826;SDS011;12910;57.690;11.974;2023-03-01T12:27:55;3.00;;;0.43;;
24826;SDS011;12910;57.690;11.974;2023-03-01T12:33:26;7.27;;;0.57;;
24826;SDS011;12910;57.690;11.974;2023-03-01T12:51:55;1.10;;;0.43;;
24826;SDS011;12910;57.690;11.974;2023-03-01T12:54:31;4.30;;;0.50;;
24826;SDS011;12910;57.690;11.974;2023-03-01T12:57:03;6.50;;;0.40;;
24826;SDS011;12910;57.690;11.974;2023-03-01T13:02:35;0.30;;;0.20;;
24826;SDS011;12910;57.690;11.974;2023-03-01T13:15:33;0.83;;;0.20;;
24826;SDS011;12910;57.690;11.974;2023-03-01T13:18:03;0.20;;;0.20;;
24826;SDS011;12910;57.690;11.974;2023-03-01T13:20:30;1.20;;;0.20;;
24826;SDS011;12910;57.690;11.974;2023-03-01T13:23:27;0.20;;;0.20;;
24826;SDS011;12910;57.690;11.974;2023-03-01T13:28:51;6.40;;;0.27;;
24826;SDS011;12910;57.690;11.974;2023-03-01T13:33:47;2.67;;;0.33;;
24826;SDS011;12910;57.690;11.974;2023-03-01T13:46:42;0.30;;;0.30;;
24826;SDS011;12910;57.690;11.974;2023-03-01T13:49:09;1.47;;;0.30;;
24826;SDS011;12910;57.690;11.974;2023-03-01T13:51:40;10.00;;;2.00;;
24826;SDS011;12910;57.690;11.974;2023-03-01T13:54:09;0.83;;;0.57;;
24826;SDS011;12910;57.690;11.974;2023-03-01T13:56:37;16.47;;;0.63;;
24826;SDS011;12910;57.690;11.974;2023-03-01T13:59:13;2.00;;;0.20;;
24826;SDS011;12910;57.690;11.974;2023-03-01T14:01:39;1.80;;;0.70;;
24826;SDS011;12910;57.690;11.974;2023-03-01T14:07:18;2.50;;;1.13;;
24826;SDS011;12910;57.690;11.974;2023-03-01T14:09:45;4.93;;;0.30;;
24826;SDS011;12910;57.690;11.974;2023-03-01T14:15:05;0.83;;;0.40;;
24826;SDS011;12910;57.690;11.974;2023-03-01T14:20:20;2.00;;;0.40;;
24826;SDS011;12910;57.690;11.974;2023-03-01T14:22:48;0.63;;;0.47;;
24826;SDS011;12910;57.690;11.974;2023-03-01T14:25:20;0.93;;;0.53;;
24826;SDS011;12910;57.690;11.974;2023-03-01T14:27:59;1.40;;;0.37;;
24826;SDS011;12910;57.690;11.974;2023-03-01T14:30:26;0.40;;;0.40;;
24826;SDS011;12910;57.690;11.974;2023-03-01T14:32:57;1.13;;;0.33;;
24826;SDS011;12910;57.690;11.974;2023-03-01T14:35:28;0.37;;;0.30;;
24826;SDS011;12910;57.690;11.974;2023-03-01T14:37:58;1.97;;;0.23;;
24826;SDS011;12910;57.690;11.974;2023-03-01T14:43:00;0.20;;;0.20;;
24826;SDS011;12910;57.690;11.974;2023-03-01T14:45:27;5.70;;;0.50;;
24826;SDS011;12910;57.690;11.974;2023-03-01T14:47:55;6.73;;;0.33;;
24826;SDS011;12910;57.690;11.974;2023-03-01T14:52:54;0.90;;;0.20;;
24826;SDS011;12910;57.690;11.974;2023-03-01T14:55:32;0.70;;;0.30;;
24826;SDS011;12910;57.690;11.974;2023-03-01T14:58:00;1.40;;;0.20;;
24826;SDS011;12910;57.690;11.974;2023-03-01T15:00:29;3.77;;;0.50;;
24826;SDS011;12910;57.690;11.974;2023-03-01T15:02:56;0.43;;;0.23;;
24826;SDS011;12910;57.690;11.974;2023-03-01T15:05:34;0.47;;;0.33;;
24826;SDS011;12910;57.690;11.974;2023-03-01T15:08:02;0.87;;;0.27;;
24826;SDS011;12910;57.690;11.974;2023-03-01T15:10:30;0.20;;;0.20;;
24826;SDS011;12910;57.690;11.974;2023-03-01T15:15:47;0.10;;;0.10;;
24826;SDS011;12910;57.690;11.974;2023-03-01T15:20:54;1.50;;;0.20;;
24826;SDS011;12910;57.690;11.974;2023-03-01T15:23:25;0.60;;;0.30;;
24826;SDS011;12910;57.690;11.974;2023-03-01T15:25:53;3.73;;;0.40;;
24826;SDS011;12910;57.690;11.974;2023-03-01T15:30:57;1.20;;;0.33;;
24826;SDS011;12910;57.690;11.974;2023-03-01T15:35:52;6.63;;;0.50;;
24826;SDS011;12910;57.690;11.974;2023-03-01T15:38:30;12.27;;;0.77;;
24826;SDS011;12910;57.690;11.974;2023-03-01T15:40:59;6.40;;;0.40;;
24826;SDS011;12910;57.690;11.974;2023-03-01T15:46:11;2.53;;;0.30;;
24826;SDS011;12910;57.690;11.974;2023-03-01T15:48:43;4.37;;;0.40;;
24826;SDS011;12910;57.690;11.974;2023-03-01T15:51:10;1.10;;;0.50;;
24826;SDS011;12910;57.690;11.974;2023-03-01T15:53:39;3.10;;;0.57;;
24826;SDS011;12910;57.690;11.974;2023-03-01T15:56:04;12.87;;;0.83;;
24826;SDS011;12910;57.690;11.974;2023-03-01T15:58:32;7.13;;;1.17;;
24826;SDS011;12910;57.690;11.974;2023-03-01T16:00:57;4.73;;;0.60;;
24826;SDS011;12910;57.690;11.974;2023-03-01T16:03:24;10.07;;;0.90;;
24826;SDS011;12910;57.690;11.974;2023-03-01T16:05:49;6.07;;;1.40;;
24826;SDS011;12910;57.690;11.974;2023-03-01T16:08:16;0.70;;;0.60;;
24826;SDS011;12910;57.690;11.974;2023-03-01T16:10:42;1.43;;;0.40;;
24826;SDS011;12910;57.690;11.974;2023-03-01T16:13:13;4.00;;;0.60;;
24826;SDS011;12910;57.690;11.974;2023-03-01T16:15:39;7.00;;;0.73;;
24826;SDS011;12910;57.690;11.974;2023-03-01T16:18:04;1.80;;;0.60;;
24826;SDS011;12910;57.690;11.974;2023-03-01T16:20:31;7.63;;;1.23;;
24826;SDS011;12910;57.690;11.974;2023-03-01T16:22:58;3.53;;;1.30;;
24826;SDS011;12910;57.690;11.974;2023-03-01T16:25:25;0.70;;;0.43;;
24826;SDS011;12910;57.690;11.974;2023-03-01T16:27:50;2.23;;;0.60;;
24826;SDS011;12910;57.690;11.974;2023-03-01T16:30:18;10.17;;;0.73;;
24826;SDS011;12910;57.690;11.974;2023-03-01T16:32:46;0.63;;;0.40;;
24826;SDS011;12910;57.690;11.974;2023-03-01T16:35:13;1.43;;;0.50;;
24826;SDS011;12910;57.690;11.974;2023-03-01T16:37:40;4.73;;;0.40;;
24826;SDS011;12910;57.690;11.974;2023-03-01T16:40:06;4.17;;;0.53;;
24826;SDS011;12910;57.690;11.974;2023-03-01T16:42:40;2.33;;;0.60;;
24826;SDS011;12910;57.690;11.974;2023-03-01T16:45:07;1.30;;;0.60;;
24826;SDS011;12910;57.690;11.974;2023-03-01T16:47:33;5.93;;;0.63;;
24826;SDS011;12910;57.690;11.974;2023-03-01T16:49:59;1.77;;;0.67;;
24826;SDS011;12910;57.690;11.974;2023-03-01T16:52:25;6.63;;;0.50;;
24826;SDS011;12910;57.690;11.974;2023-03-01T16:54:50;2.03;;;0.43;;
24826;SDS011;12910;57.690;11.974;2023-03-01T16:57:16;7.80;;;0.70;;
24826;SDS011;12910;57.690;11.974;2023-03-01T16:59:41;1.47;;;0.67;;
24826;SDS011;12910;57.690;11.974;2023-03-01T17:02:10;0.53;;;0.30;;
24826;SDS011;12910;57.690;11.974;2023-03-01T17:04:37;2.23;;;0.50;;
24826;SDS011;12910;57.690;11.974;2023-03-01T17:07:03;0.47;;;0.30;;